createdAt,value
2023-05-12T00:03:04.708Z,101511.94
2023-05-12T00:08:26.671Z,101516.03
2023-05-12T00:13:48.663Z,101517.72
2023-05-12T00:19:10.587Z,101518.22
2023-05-12T00:24:32.755Z,101518.22
2023-05-12T00:29:54.546Z,101512.06
2023-05-12T00:35:17.295Z,101511.19
2023-05-12T00:40:41.549Z,101508.69
2023-05-12T00:46:05.820Z,101509.75
2023-05-12T00:51:28.203Z,101506.97
2023-05-12T00:56:50.066Z,101498.03
2023-05-12T01:02:12.116Z,101501.69
2023-05-12T01:07:34.157Z,101491.88
2023-05-12T01:12:56.448Z,101489.34
2023-05-12T01:18:20.877Z,101494.91
2023-05-12T01:23:46.993Z,101487.91
2023-05-12T01:29:09.017Z,101489.00
2023-05-12T01:34:31.020Z,101485.38
2023-05-12T01:39:56.226Z,101481.75
2023-05-12T01:45:18.058Z,101483.94
2023-05-12T01:50:39.880Z,101485.00
2023-05-12T01:56:02.030Z,101486.06
2023-05-12T02:01:25.890Z,101489.91
2023-05-12T02:06:50.768Z,101487.41
2023-05-12T02:12:12.627Z,101492.59
2023-05-12T02:17:34.414Z,101481.50
2023-05-12T02:22:56.581Z,101476.41
2023-05-12T02:28:18.383Z,101479.44
2023-05-12T02:33:40.158Z,101471.34
2023-05-12T02:39:01.982Z,101467.72
2023-05-12T02:44:23.906Z,101465.16
2023-05-12T02:49:45.668Z,101462.41
2023-05-12T02:55:07.874Z,101462.41
2023-05-12T03:00:29.658Z,101454.31
2023-05-12T03:05:53.040Z,101449.84
2023-05-12T03:11:15.602Z,101449.03
2023-05-12T03:16:37.396Z,101440.91
2023-05-12T03:21:59.298Z,101435.63
2023-05-12T03:27:22.109Z,101432.84
2023-05-12T03:32:45.497Z,101428.38
2023-05-12T03:38:07.317Z,101424.97
2023-05-12T03:43:29.356Z,101419.44
2023-05-12T03:48:51.221Z,101416.91
2023-05-12T03:54:13.073Z,101410.50
2023-05-12T03:59:35.104Z,101409.88
2023-05-12T04:04:57.404Z,101394.31
2023-05-12T04:10:19.517Z,101402.66
2023-05-12T04:15:41.418Z,101391.78
2023-05-12T04:21:03.250Z,101395.66
2023-05-12T04:26:25.088Z,101378.16
2023-05-12T04:31:47.160Z,101381.16
2023-05-12T04:37:09.060Z,101385.88
2023-05-12T04:42:31.201Z,101383.38
2023-05-12T04:47:53.122Z,101386.16
2023-05-12T04:53:18.866Z,101385.53
2023-05-12T04:58:40.832Z,101385.75
2023-05-12T05:04:02.925Z,101384.31
2023-05-12T05:09:24.734Z,101390.13
2023-05-12T05:14:46.581Z,101391.81
2023-05-12T05:20:11.823Z,101387.34
2023-05-12T05:25:34.741Z,101381.78
2023-05-12T05:30:56.982Z,101392.78
2023-05-12T05:36:18.892Z,101400.97
2023-05-12T05:41:40.774Z,101395.78
2023-05-12T05:47:03.348Z,101388.91
2023-05-12T05:52:25.240Z,101384.44
2023-05-12T05:57:47.089Z,101393.84
2023-05-12T06:03:09.084Z,101389.63
2023-05-12T06:08:30.939Z,101393.75
2023-05-12T06:13:52.892Z,101385.63
2023-05-12T06:19:15.854Z,101389.75
2023-05-12T06:24:37.705Z,101391.91
2023-05-12T06:29:59.524Z,101394.69
2023-05-12T06:35:21.608Z,101389.03
2023-05-12T06:40:43.562Z,101397.59
2023-05-12T06:46:05.775Z,101385.88
2023-05-12T06:51:27.648Z,101397.22
2023-05-12T06:56:49.453Z,101394.47
2023-05-12T07:02:11.359Z,101398.31
2023-05-12T07:07:33.132Z,101387.81
2023-05-12T07:12:54.957Z,101401.69
2023-05-12T07:18:16.927Z,101392.50
2023-05-12T07:23:41.637Z,101396.25
2023-05-12T07:29:04.448Z,101404.47
2023-05-12T07:34:26.302Z,101408.31
2023-05-12T07:39:48.078Z,101422.34
2023-05-12T07:45:10.204Z,101418.34
2023-05-12T07:50:32.038Z,101419.88
2023-05-12T07:55:53.939Z,101426.22
2023-05-12T08:01:15.798Z,101430.78
2023-05-12T08:06:38.187Z,101445.25
2023-05-12T08:12:00.527Z,101446.47
2023-05-12T08:17:22.548Z,101445.13
2023-05-12T08:22:44.953Z,101453.22
2023-05-12T08:28:06.792Z,101463.25
2023-05-12T08:33:28.941Z,101465.53
2023-05-12T08:38:50.805Z,101468.91
2023-05-12T08:44:13.294Z,101479.03
2023-05-12T08:49:36.714Z,101483.03
2023-05-12T08:55:00.736Z,101491.97
2023-05-12T09:00:25.819Z,101497.88
2023-05-12T09:05:47.982Z,101501.63
2023-05-12T09:11:13.114Z,101497.25
2023-05-12T09:16:42.005Z,101498.47
2023-05-12T09:22:04.182Z,101506.91
2023-05-12T09:27:29.953Z,101504.81
2023-05-12T09:32:51.829Z,101510.66
2023-05-12T09:38:14.890Z,101508.44
2023-05-12T09:43:37.863Z,101512.34
2023-05-12T09:49:00.308Z,101516.78
2023-05-12T09:54:32.279Z,101521.63
2023-05-12T09:59:54.829Z,101520.41
2023-05-12T10:05:21.158Z,101519.41
2023-05-12T10:10:48.739Z,101513.72
2023-05-12T10:16:10.879Z,101516.25
2023-05-12T10:21:34.147Z,101524.59
2023-05-12T10:26:56.874Z,101530.91
2023-05-12T10:32:18.827Z,101534.78
2023-05-12T10:37:43.029Z,101535.00
2023-05-12T10:43:05.163Z,101531.88
2023-05-12T10:48:27.118Z,101537.44
2023-05-12T10:53:54.866Z,101551.97
2023-05-12T10:59:25.602Z,101553.66
2023-05-12T11:04:52.812Z,101549.19
2023-05-12T11:10:15.202Z,101543.34
2023-05-12T11:15:38.055Z,101546.75
2023-05-12T11:21:09.977Z,101553.16
2023-05-12T11:26:32.126Z,101566.69
2023-05-12T11:31:54.223Z,101557.53
2023-05-12T11:37:16.084Z,101557.25
2023-05-12T11:42:39.497Z,101573.38
2023-05-12T11:48:14.336Z,101577.47
2023-05-12T11:53:41.332Z,101568.31
2023-05-12T11:59:03.151Z,101573.84
2023-05-12T12:04:51.105Z,101573.72
2023-05-12T12:10:18.301Z,101572.38
2023-05-12T12:15:40.142Z,101578.63
2023-05-12T12:21:02.037Z,101581.88
2023-05-12T12:26:23.928Z,101581.38
2023-05-12T12:31:46.142Z,101584.78
2023-05-12T12:37:08.080Z,101585.94
2023-05-12T12:42:30.306Z,101576.50
2023-05-12T12:47:52.872Z,101587.06
2023-05-12T12:53:14.693Z,101599.78
2023-05-12T12:58:36.523Z,101601.47
2023-05-12T13:04:00.514Z,101586.94
2023-05-12T13:09:22.327Z,101588.66
2023-05-12T13:14:44.223Z,101584.31
2023-05-12T13:20:06.677Z,101600.06
2023-05-12T13:25:28.468Z,101597.41
2023-05-12T13:30:53.461Z,101597.06
2023-05-12T13:36:15.288Z,101603.38
2023-05-12T13:41:37.518Z,101605.53
2023-05-12T13:46:59.428Z,101605.75
2023-05-12T13:52:21.196Z,101602.97
2023-05-12T13:57:42.978Z,101600.72
2023-05-12T14:03:04.902Z,101603.50
2023-05-12T14:08:26.773Z,101613.28
2023-05-12T14:13:48.548Z,101602.97
2023-05-12T14:19:10.371Z,101601.41
2023-05-12T14:24:32.411Z,101604.81
2023-05-12T14:29:54.264Z,101612.53
2023-05-12T14:35:16.168Z,101612.53
2023-05-12T14:40:39.632Z,101618.84
2023-05-12T14:46:02.495Z,101628.53
2023-05-12T14:51:24.321Z,101639.00
2023-05-12T14:56:46.086Z,101648.00
2023-05-12T15:02:07.999Z,101648.00
2023-05-12T15:07:29.857Z,101652.91
2023-05-12T15:12:51.723Z,101671.50
2023-05-12T15:18:13.546Z,101681.66
2023-05-12T15:23:35.417Z,101667.88
2023-05-12T15:28:57.258Z,101675.25
2023-05-12T15:34:19.062Z,101690.03
2023-05-12T15:39:40.843Z,101677.34
2023-05-12T15:45:02.918Z,101683.25
2023-05-12T15:50:24.866Z,101684.22
2023-05-12T15:55:47.162Z,101684.34
2023-05-12T16:01:08.960Z,101683.63
2023-05-12T16:06:30.749Z,101675.41
2023-05-12T16:11:53.438Z,101669.59
2023-05-12T16:17:15.231Z,101672.16
2023-05-12T16:22:37.096Z,101672.16
2023-05-12T16:27:59.224Z,101677.25
2023-05-12T16:33:21.045Z,101674.47
2023-05-12T16:38:42.990Z,101683.16
2023-05-12T16:44:05.269Z,101672.84
2023-05-12T16:49:27.081Z,101675.53
2023-05-12T16:54:48.883Z,101681.59
2023-05-12T17:00:11.457Z,101682.94
2023-05-12T17:05:33.555Z,101689.19
2023-05-12T17:10:55.328Z,101682.63
2023-05-12T17:16:17.221Z,101698.13
2023-05-12T17:21:39.049Z,101701.63
2023-05-12T17:27:01.456Z,101711.28
2023-05-12T17:32:23.443Z,101707.31
2023-05-12T17:37:45.436Z,101725.31
2023-05-12T17:43:07.630Z,101739.81
2023-05-12T17:48:33.487Z,101741.16
2023-05-12T17:53:55.430Z,101750.81
2023-05-12T17:59:17.418Z,101746.56
2023-05-12T18:04:40.134Z,101754.06
2023-05-12T18:10:02.906Z,101749.97
2023-05-12T18:15:25.182Z,101759.28
2023-05-12T18:20:47.128Z,101754.69
2023-05-12T18:26:09.551Z,101750.34
2023-05-12T18:31:31.483Z,101758.44
2023-05-12T18:36:53.813Z,101750.72
2023-05-12T18:42:15.612Z,101757.97
2023-05-12T18:47:37.709Z,101774.19
2023-05-12T18:52:59.614Z,101773.13
2023-05-12T18:58:21.737Z,101777.44
2023-05-12T19:03:43.569Z,101787.03
2023-05-12T19:09:05.847Z,101794.38
2023-05-12T19:14:27.640Z,101794.53
2023-05-12T19:19:51.053Z,101801.53
2023-05-12T19:25:18.100Z,101804.94
2023-05-12T19:30:39.935Z,101797.19
2023-05-12T19:36:02.307Z,101799.72
2023-05-12T19:41:24.488Z,101808.69
2023-05-12T19:46:47.281Z,101809.28
2023-05-12T19:52:09.078Z,101822.72
2023-05-12T19:57:31.107Z,101823.31
2023-05-12T20:02:53.177Z,101844.72
2023-05-12T20:08:15.195Z,101843.50
2023-05-12T20:13:37.040Z,101853.44
2023-05-12T20:19:00.042Z,101858.88
2023-05-12T20:24:23.736Z,101864.53
2023-05-12T20:29:45.549Z,101878.28
2023-05-12T20:35:07.688Z,101881.78
2023-05-12T20:40:29.792Z,101880.78
2023-05-12T20:45:51.669Z,101889.00
2023-05-12T20:51:13.677Z,101887.78
2023-05-12T20:56:35.434Z,101891.50
2023-05-12T21:01:57.374Z,101891.97
2023-05-12T21:07:20.045Z,101895.47
2023-05-12T21:12:41.971Z,101901.25
2023-05-12T21:18:04.400Z,101906.22
2023-05-12T21:23:26.539Z,101912.22
2023-05-12T21:28:48.309Z,101914.38
2023-05-12T21:34:10.625Z,101922.09
2023-05-12T21:39:32.380Z,101920.66
2023-05-12T21:44:54.182Z,101921.97
2023-05-12T21:50:17.001Z,101915.81
2023-05-12T21:55:40.867Z,101921.56
2023-05-12T22:01:02.816Z,101925.44
2023-05-12T22:06:24.891Z,101918.41
2023-05-12T22:11:46.916Z,101919.50
2023-05-12T22:17:09.250Z,101923.34
2023-05-12T22:22:31.199Z,101918.03
2023-05-12T22:27:53.179Z,101929.41
2023-05-12T22:33:17.956Z,101928.53
2023-05-12T22:38:39.842Z,101926.00
2023-05-12T22:44:01.679Z,101918.75
2023-05-12T22:49:23.674Z,101923.44
2023-05-12T22:54:45.690Z,101928.16
2023-05-12T23:00:07.862Z,101919.19
2023-05-12T23:05:29.677Z,101917.50
2023-05-12T23:10:51.402Z,101925.22
2023-05-12T23:16:13.194Z,101924.38
2023-05-12T23:21:35.067Z,101937.41
2023-05-12T23:26:56.917Z,101926.53
2023-05-12T23:32:18.798Z,101924.84
2023-05-12T23:37:40.793Z,101928.69
2023-05-12T23:43:02.725Z,101916.75
2023-05-12T23:48:24.884Z,101913.09
2023-05-12T23:53:46.726Z,101914.44
2023-05-12T23:59:09.329Z,101918.91
